Time;durP1;ratioP1;P1;durP2;ratioP2;P2;SDS_P1;SDS_P2;PMS_P1;PMS_P2;Temp;Humidity;BMP_temperature;BMP_pressure;BME280_temperature;BME280_humidity;BME280_pressure;Samples;Min_cycle;Max_cycle;Signal;HPM_P1;HPM_P2
2023/01/24 00:00:45;;;;;;;25.27;13.02;;;;;;;-0.08;62.07;102058.66;5071241;28;20041;-50
2023/01/24 00:03:12;;;;;;;33.95;15.63;;;;;;;-0.01;62.05;102069.22;5072241;28;20033;-55
2023/01/24 00:05:44;;;;;;;25.73;11.60;;;;;;;0.06;62.50;102069.19;5071355;28;20035;-54
2023/01/24 00:08:12;;;;;;;23.92;10.40;;;;;;;0.09;61.18;102070.09;5071733;28;20051;-54
2023/01/24 00:10:38;;;;;;;21.95;9.95;;;;;;;0.08;61.43;102065.69;5071619;28;20046;-57
2023/01/24 00:13:04;;;;;;;20.70;10.27;;;;;;;0.02;61.58;102065.72;5072661;28;20358;-55
2023/01/24 00:15:29;;;;;;;23.15;10.85;;;;;;;0.07;61.41;102078.84;5072165;28;20329;-50
2023/01/24 00:17:55;;;;;;;20.52;9.75;;;;;;;0.09;61.34;102072.72;5071265;28;20024;-52
2023/01/24 00:20:21;;;;;;;22.00;10.40;;;;;;;0.08;61.00;102073.59;5071022;28;20031;-54
2023/01/24 00:22:46;;;;;;;21.58;10.98;;;;;;;0.08;60.91;102070.97;5072840;28;20439;-53
2023/01/24 00:25:11;;;;;;;24.60;11.13;;;;;;;0.06;61.04;102067.47;5072001;28;20174;-54
2023/01/24 00:27:38;;;;;;;22.88;10.95;;;;;;;0.00;61.47;102062.19;5071786;28;20029;-54
2023/01/24 00:30:05;;;;;;;21.23;10.48;;;;;;;-0.06;61.37;102067.44;5072169;28;20024;-55
2023/01/24 00:32:31;;;;;;;20.60;11.18;;;;;;;-0.13;61.41;102052.53;5071730;28;20047;-54
2023/01/24 00:34:57;;;;;;;23.35;10.18;;;;;;;-0.18;61.33;102057.78;5070663;28;20053;-56
2023/01/24 00:37:22;;;;;;;24.27;11.85;;;;;;;-0.23;61.82;102046.38;5071471;28;20070;-55
2023/01/24 00:39:47;;;;;;;22.92;10.60;;;;;;;-0.20;61.78;102057.81;5072335;28;20028;-52
2023/01/24 00:42:13;;;;;;;23.70;10.77;;;;;;;-0.21;61.62;102053.41;5072096;28;20033;-54
2023/01/24 00:44:38;;;;;;;21.27;10.25;;;;;;;-0.20;61.73;102059.56;5071939;28;20459;-54
2023/01/24 00:47:04;;;;;;;23.40;11.02;;;;;;;-0.22;62.19;102050.78;5071682;28;20028;-53
2023/01/24 00:49:29;;;;;;;20.33;10.90;;;;;;;-0.24;61.84;102047.25;5071843;28;20033;-54
2023/01/24 00:51:55;;;;;;;20.67;10.93;;;;;;;-0.26;61.73;102046.38;5072215;28;20108;-55
2023/01/24 00:54:20;;;;;;;21.95;10.77;;;;;;;-0.26;62.31;102057.78;5072385;28;20454;-65
2023/01/24 00:56:46;;;;;;;27.65;11.48;;;;;;;-0.26;61.80;102044.63;5071244;28;20390;-51
2023/01/24 00:59:11;;;;;;;24.33;10.93;;;;;;;-0.29;61.84;102047.25;5071836;28;20108;-54
2023/01/24 01:01:37;;;;;;;20.83;10.07;;;;;;;-0.27;62.15;102042.88;5071934;28;20056;-52
2023/01/24 01:04:02;;;;;;;20.33;9.38;;;;;;;-0.26;62.19;102042.00;5072201;28;20031;-52
2023/01/24 01:06:28;;;;;;;20.38;10.57;;;;;;;-0.30;62.16;102032.34;5074259;28;20028;-53
2023/01/24 01:08:53;;;;;;;19.90;10.25;;;;;;;-0.24;62.00;102036.72;5075103;28;20068;-55
2023/01/24 01:11:19;;;;;;;22.08;10.60;;;;;;;-0.22;62.07;102034.97;5075829;28;20198;-54
2023/01/24 01:13:48;;;;;;;20.33;9.48;;;;;;;-0.37;61.87;101999.00;5075043;28;20196;-51
2023/01/24 01:16:17;;;;;;;20.33;9.88;;;;;;;-0.14;61.63;102033.22;5074708;28;20135;-57
2023/01/24 01:18:43;;;;;;;18.40;9.23;;;;;;;-0.41;61.64;101982.31;5054896;28;20040;-55
2023/01/24 01:21:12;;;;;;;21.08;8.88;;;;;;;-0.13;61.84;102036.72;5054670;28;20095;-53
2023/01/24 01:23:38;;;;;;;18.98;9.68;;;;;;;-0.23;61.86;102013.06;5055288;28;20443;-56
2023/01/24 01:26:06;;;;;;;20.17;9.45;;;;;;;-0.18;62.24;102023.56;5065831;28;20067;-51
2023/01/24 01:28:32;;;;;;;18.80;9.10;;;;;;;-0.18;61.68;102028.81;5074967;28;20473;-50
2023/01/24 01:30:58;;;;;;;18.85;9.13;;;;;;;-0.25;62.12;102014.78;5074999;28;20116;-52
2023/01/24 01:33:24;;;;;;;22.70;9.93;;;;;;;-0.21;61.83;102015.66;5074518;28;20097;-59
2023/01/24 01:35:50;;;;;;;20.80;9.20;;;;;;;-0.22;61.94;102025.34;5074938;28;20094;-50
2023/01/24 01:38:16;;;;;;;20.08;9.55;;;;;;;-0.24;62.25;102013.03;5074313;28;20116;-56
2023/01/24 01:40:42;;;;;;;18.35;9.68;;;;;;;-0.15;62.03;102013.91;5074123;28;20056;-54
2023/01/24 01:43:28;;;;;;;20.52;9.80;;;;;;;-0.08;62.20;102016.53;5074821;28;20043;-54
2023/01/24 01:45:59;;;;;;;21.02;10.30;;;;;;;-0.10;61.79;102019.19;5074252;28;20039;-62
2023/01/24 01:48:36;;;;;;;21.60;10.50;;;;;;;-0.14;62.12;102006.88;5074383;28;20062;-54
2023/01/24 01:51:13;;;;;;;21.58;10.13;;;;;;;-0.07;62.19;102015.66;5074754;28;20028;-51
2023/01/24 01:53:51;;;;;;;17.48;9.07;;;;;;;-0.03;62.12;102022.66;5074050;28;20028;-49
2023/01/24 01:56:32;;;;;;;19.77;10.05;;;;;;;0.01;62.03;102015.66;5073172;28;20395;-52
2023/01/24 01:59:01;;;;;;;20.15;9.90;;;;;;;0.01;61.75;102011.28;5074067;28;20051;-53
2023/01/24 02:01:27;;;;;;;21.52;10.45;;;;;;;-0.03;61.67;102017.41;5074612;28;20389;-51
2023/01/24 02:04:08;;;;;;;16.88;9.82;;;;;;;0.04;61.68;102021.81;5074092;28;20021;-53
2023/01/24 02:06:59;;;;;;;21.10;9.82;;;;;;;0.03;61.66;102025.31;5074487;28;20064;-51
2023/01/24 02:09:28;;;;;;;20.77;10.30;;;;;;;-0.02;61.45;102013.88;5074655;28;20036;-62
2023/01/24 02:11:58;;;;;;;21.85;10.20;;;;;;;-0.05;61.52;102019.16;5074188;28;20094;-51
2023/01/24 02:17:08;;;;;;;19.42;9.88;;;;;;;-0.07;61.33;102013.03;5073677;28;20032;-55
2023/01/24 02:19:50;;;;;;;21.42;10.23;;;;;;;-0.08;61.77;102016.53;5073753;28;20108;-55
2023/01/24 02:22:47;;;;;;;18.30;8.80;;;;;;;-0.03;61.72;102015.66;5073708;28;20036;-53
2023/01/24 02:25:38;;;;;;;20.90;10.60;;;;;;;-0.03;61.77;102015.66;5056819;28;20073;-51
2023/01/24 02:28:06;;;;;;;21.70;10.90;;;;;;;-0.26;61.96;101983.22;5073515;28;20158;-51
2023/01/24 02:30:31;;;;;;;21.48;10.93;;;;;;;-0.05;61.64;102016.53;5073431;28;20177;-50
2023/01/24 02:32:57;;;;;;;23.90;11.52;;;;;;;-0.10;62.25;102008.66;5073300;28;20468;-61
2023/01/24 02:35:32;;;;;;;23.23;11.35;;;;;;;-0.03;62.04;102020.03;5073984;28;20056;-51
2023/01/24 02:37:59;;;;;;;23.90;11.50;;;;;;;-0.03;62.01;102020.03;5073808;28;20480;-53
2023/01/24 02:40:27;;;;;;;21.85;10.68;;;;;;;-0.06;61.87;102010.41;5053669;28;20040;-51
2023/01/24 02:42:57;;;;;;;16.63;9.13;;;;;;;-0.02;61.74;102006.88;5053570;28;20106;-50
2023/01/24 02:45:29;;;;;;;18.45;8.88;;;;;;;-0.03;61.84;102005.13;5053508;28;20033;-52
2023/01/24 02:47:56;;;;;;;22.30;9.40;;;;;;;-0.05;62.18;102008.63;5074036;28;20039;-55
2023/01/24 02:50:24;;;;;;;16.33;8.43;;;;;;;-0.06;62.04;102004.25;5072833;28;20347;-56
2023/01/24 02:58:05;;;;;;;18.98;9.10;;;;;;;-0.08;62.07;102001.63;5053431;28;20025;-51
2023/01/24 02:58:25;;;;;;;16.73;7.97;;;;;;;-0.05;62.18;102006.88;5058451;28;20477;-51
2023/01/24 03:00:50;;;;;;;15.98;8.95;;;;;;;-0.10;62.05;101984.06;5072922;28;20056;-51
2023/01/24 03:03:16;;;;;;;20.23;9.20;;;;;;;-0.06;62.18;101998.97;5072845;28;20056;-52
2023/01/24 03:05:56;;;;;;;19.95;8.35;;;;;;;-0.06;61.76;101985.81;5073405;28;20028;-50
2023/01/24 03:08:33;;;;;;;19.85;9.27;;;;;;;-0.02;61.82;101982.28;5071340;28;20031;-51
2023/01/24 03:10:59;;;;;;;17.95;8.63;;;;;;;-0.07;61.94;101979.69;5072327;28;20032;-59
2023/01/24 03:35:20;;;;;;;16.90;7.95;;;;;;;-0.11;61.99;101961.25;5072109;28;20056;-49
2023/01/24 03:40:30;;;;;;;14.68;7.43;;;;;;;-0.06;62.18;101956.84;5072455;28;20040;-62
2023/01/24 03:42:56;;;;;;;15.93;7.43;;;;;;;-0.04;62.68;101949.81;5072513;28;20028;-52
2023/01/24 03:45:27;;;;;;;13.60;7.30;;;;;;;0.00;62.52;101962.13;5072197;28;20029;-53
2023/01/24 03:47:55;;;;;;;13.70;6.82;;;;;;;-0.03;62.29;101967.38;5071834;28;20562;-53
2023/01/24 03:53:28;;;;;;;18.90;8.25;;;;;;;-0.05;62.05;101958.59;5072892;28;20035;-54
2023/01/24 03:55:56;;;;;;;16.65;8.00;;;;;;;-0.27;62.43;101920.91;5072506;28;20048;-52
2023/01/24 03:58:23;;;;;;;13.38;7.75;;;;;;;-0.15;62.46;101953.34;5071554;28;20033;-52
2023/01/24 04:00:49;;;;;;;14.15;7.43;;;;;;;-0.20;62.59;101944.59;5071850;28;20396;-50
2023/01/24 04:03:15;;;;;;;12.60;7.20;;;;;;;-0.23;63.08;101948.97;5071933;28;20071;-53
2023/01/24 04:05:40;;;;;;;15.15;7.68;;;;;;;-0.28;62.64;101951.59;5072238;28;20047;-53
2023/01/24 04:08:07;;;;;;;17.98;8.30;;;;;;;-0.35;62.75;101947.25;5071744;28;20443;-53
2023/01/24 04:10:33;;;;;;;14.85;7.78;;;;;;;-0.47;63.57;101941.13;5071736;28;20062;-52
2023/01/24 04:12:58;;;;;;;15.52;7.78;;;;;;;-0.49;63.72;101947.25;5072823;28;20100;-56
2023/01/24 04:15:27;;;;;;;18.35;8.30;;;;;;;-0.54;63.49;101947.25;5071977;28;20032;-55
2023/01/24 04:17:58;;;;;;;17.92;8.32;;;;;;;-0.59;63.75;101951.63;5071423;28;20501;-59
2023/01/24 04:20:25;;;;;;;15.98;8.20;;;;;;;-0.69;64.11;101945.50;5072522;28;20029;-56
2023/01/24 04:22:50;;;;;;;15.55;8.23;;;;;;;-0.76;64.44;101944.59;5072638;28;20402;-56
2023/01/24 04:25:16;;;;;;;17.73;8.35;;;;;;;-0.79;64.29;101941.97;5071662;28;20036;-53
2023/01/24 04:27:42;;;;;;;15.73;7.85;;;;;;;-0.82;64.41;101941.97;5071735;28;20443;-53
2023/01/24 04:30:10;;;;;;;15.48;7.78;;;;;;;-0.80;64.48;101940.22;5071985;28;20036;-54
2023/01/24 04:32:36;;;;;;;18.20;9.38;;;;;;;-0.78;64.63;101945.50;5072010;28;20036;-53
2023/01/24 04:35:03;;;;;;;15.35;8.27;;;;;;;-0.75;64.11;101940.22;5072080;28;20049;-56
2023/01/24 04:37:30;;;;;;;15.30;8.23;;;;;;;-0.71;64.42;101943.75;5071415;28;20354;-54
2023/01/24 04:39:55;;;;;;;18.70;8.65;;;;;;;-0.66;64.55;101945.47;5072446;28;20108;-53
2023/01/24 04:42:21;;;;;;;19.15;8.13;;;;;;;-0.63;63.91;101931.47;5075814;28;20033;-52
2023/01/24 04:44:46;;;;;;;15.45;8.82;;;;;;;-0.55;64.29;101942.84;5075564;28;20040;-55
2023/01/24 04:47:12;;;;;;;19.33;9.15;;;;;;;-0.51;63.70;101954.28;5074238;28;20060;-56
2023/01/24 04:49:37;;;;;;;16.83;9.30;;;;;;;-0.51;64.01;101944.59;5075288;28;20111;-58
2023/01/24 04:52:03;;;;;;;20.27;9.77;;;;;;;-0.50;63.99;101941.09;5076363;28;20039;-55
2023/01/24 04:54:29;;;;;;;17.80;8.43;;;;;;;-0.47;63.99;101938.50;5075067;28;20081;-57
2023/01/24 04:56:55;;;;;;;18.25;7.57;;;;;;;-0.56;64.06;101919.19;5074683;28;20359;-55
2023/01/24 04:59:20;;;;;;;15.23;7.60;;;;;;;-0.39;63.66;101934.97;5075362;28;20025;-58
2023/01/24 05:01:46;;;;;;;16.75;7.60;;;;;;;-0.35;63.50;101932.34;5075662;28;20064;-58
2023/01/24 05:04:11;;;;;;;16.42;8.35;;;;;;;-0.32;63.64;101923.53;5075303;28;20435;-54
2023/01/24 05:06:37;;;;;;;16.48;7.50;;;;;;;-0.30;63.18;101927.94;5075142;28;20068;-51
2023/01/24 05:09:03;;;;;;;17.17;7.85;;;;;;;-0.33;63.35;101938.47;5075566;28;20093;-56
2023/01/24 05:11:28;;;;;;;16.38;8.15;;;;;;;-0.29;63.08;101931.44;5074544;28;20079;-57
2023/01/24 05:13:54;;;;;;;12.95;7.65;;;;;;;-0.71;63.25;101849.91;5075183;28;20443;-51
2023/01/24 05:16:19;;;;;;;15.60;7.78;;;;;;;-0.26;63.08;101925.28;5074402;28;20044;-56
2023/01/24 05:18:45;;;;;;;17.25;8.05;;;;;;;-0.28;63.29;101924.41;5075192;28;20451;-53
2023/01/24 05:21:13;;;;;;;15.82;8.63;;;;;;;-0.24;63.14;101927.06;5074531;28;20043;-57
2023/01/24 05:23:39;;;;;;;16.10;8.10;;;;;;;-0.30;62.94;101916.50;5075420;28;20037;-55
2023/01/24 05:26:05;;;;;;;13.80;7.40;;;;;;;-0.29;63.22;101923.53;5075209;28;20095;-53
2023/01/24 05:28:31;;;;;;;14.20;7.60;;;;;;;-0.27;63.42;101915.66;5075284;28;20107;-55
2023/01/24 05:31:00;;;;;;;14.52;7.47;;;;;;;-0.20;63.33;101923.53;5074649;28;20043;-54
2023/01/24 05:33:26;;;;;;;15.13;8.60;;;;;;;-0.20;63.26;101936.69;5074065;28;20033;-57
2023/01/24 05:36:00;;;;;;;15.82;8.50;;;;;;;-0.17;62.81;101926.16;5073845;28;20064;-57
2023/01/24 05:38:26;;;;;;;17.42;8.50;;;;;;;-0.17;62.75;101918.25;5070732;28;20059;-54
2023/01/24 05:40:52;;;;;;;14.93;8.70;;;;;;;-0.16;62.92;101922.66;5066055;28;20036;-56
2023/01/24 05:43:17;;;;;;;15.88;9.05;;;;;;;-0.20;63.03;101913.00;5063339;28;20115;-57
2023/01/24 05:45:43;;;;;;;15.70;7.93;;;;;;;-0.13;62.81;101924.38;5073649;28;20477;-63
2023/01/24 05:48:09;;;;;;;13.45;8.10;;;;;;;-0.11;62.99;101925.28;5074498;28;20086;-62
2023/01/24 05:50:36;;;;;;;17.00;8.02;;;;;;;-0.31;63.19;101883.16;5075210;28;20090;-58
2023/01/24 05:53:04;;;;;;;17.38;8.50;;;;;;;-0.09;62.65;101914.72;5072567;28;20082;-54
2023/01/24 05:55:30;;;;;;;16.30;8.38;;;;;;;-0.15;62.72;101905.97;5074447;28;20078;-54
2023/01/24 05:57:58;;;;;;;16.23;8.90;;;;;;;-0.13;63.01;101908.56;5074542;28;20052;-57
2023/01/24 06:00:23;;;;;;;16.75;8.10;;;;;;;-0.37;63.23;101872.66;5074295;28;20108;-56
2023/01/24 06:02:49;;;;;;;13.65;7.82;;;;;;;-0.17;62.96;101899.81;5073763;28;20116;-54
2023/01/24 06:05:14;;;;;;;13.93;7.80;;;;;;;-0.33;63.08;101879.66;5073747;28;20024;-53
2023/01/24 06:07:40;;;;;;;14.65;7.07;;;;;;;-0.19;63.21;101893.69;5074572;28;20044;-56
2023/01/24 06:10:05;;;;;;;14.30;7.88;;;;;;;-0.17;63.16;101904.19;5074009;28;20032;-60
2023/01/24 06:12:32;;;;;;;18.92;7.72;;;;;;;-0.16;63.22;101900.69;5067137;28;20048;-53
2023/01/24 06:14:57;;;;;;;16.35;7.95;;;;;;;-0.19;62.93;101903.31;5062193;28;20121;-55
2023/01/24 06:17:22;;;;;;;13.75;7.60;;;;;;;-0.18;63.37;101916.50;5064089;28;20095;-56
2023/01/24 06:19:48;;;;;;;21.60;8.00;;;;;;;-0.19;63.39;101908.59;5065091;28;20017;-51
2023/01/24 06:22:16;;;;;;;14.25;7.82;;;;;;;-0.10;63.25;101899.81;5061801;28;20043;-52
2023/01/24 06:24:42;;;;;;;18.73;7.50;;;;;;;-0.06;62.81;101910.34;5061161;28;20107;-56
2023/01/24 06:27:08;;;;;;;15.05;7.70;;;;;;;-0.02;62.84;101905.91;5073549;28;20119;-51
2023/01/24 06:29:34;;;;;;;15.82;8.07;;;;;;;-0.05;62.49;101891.00;5074237;28;20035;-51
2023/01/24 06:32:31;;;;;;;19.50;7.47;;;;;;;0.18;62.88;101897.97;5073613;28;20041;-50
2023/01/24 06:35:28;;;;;;;12.93;7.25;;;;;;;0.32;62.53;101891.75;5073157;28;20540;-52
2023/01/24 06:37:54;;;;;;;16.48;7.15;;;;;;;0.17;61.77;101847.91;5073720;28;20040;-59
2023/01/24 06:40:25;;;;;;;14.63;7.55;;;;;;;0.46;61.48;101889.03;5073969;28;20340;-50
2023/01/24 06:42:52;;;;;;;16.83;7.30;;;;;;;0.53;61.04;101890.78;5073549;28;20033;-55
2023/01/24 06:45:18;;;;;;;20.60;8.05;;;;;;;0.57;61.43;101884.59;5073352;28;20040;-53
2023/01/24 06:47:44;;;;;;;22.27;8.57;;;;;;;0.70;60.91;101885.41;5073828;28;20413;-56
2023/01/24 06:50:20;;;;;;;15.45;8.23;;;;;;;0.76;60.59;101861.63;5071440;28;20028;-62
2023/01/24 06:52:47;;;;;;;14.23;6.78;;;;;;;1.07;59.88;101890.41;5072511;28;20024;-54
2023/01/24 06:55:14;;;;;;;14.18;6.80;;;;;;;1.24;59.49;101890.28;5073331;28;20028;-51
2023/01/24 06:57:39;;;;;;;14.40;7.00;;;;;;;1.44;59.08;101881.28;5073791;28;20028;-55
2023/01/24 07:00:06;;;;;;;14.00;7.15;;;;;;;1.62;58.42;101893.47;5072560;28;20355;-57
2023/01/24 07:02:32;;;;;;;15.00;6.95;;;;;;;1.75;57.95;101893.31;5072139;28;20028;-55
2023/01/24 07:04:57;;;;;;;14.07;7.55;;;;;;;1.84;57.59;101894.09;5073174;28;20033;-55
2023/01/24 07:07:23;;;;;;;16.08;7.47;;;;;;;1.98;57.67;101901.03;5073032;28;20051;-56
2023/01/24 07:09:48;;;;;;;26.90;7.88;;;;;;;2.08;57.12;101893.88;5073110;28;20037;-55
2023/01/24 07:12:13;;;;;;;25.10;10.23;;;;;;;2.07;56.77;101897.41;5072828;28;20427;-55
2023/01/24 07:14:39;;;;;;;16.92;7.65;;;;;;;1.91;56.72;101865.84;5073183;28;20082;-52
2023/01/24 07:17:05;;;;;;;15.27;8.02;;;;;;;2.10;57.03;101903.50;5072662;28;20043;-53
2023/01/24 07:19:30;;;;;;;13.77;7.22;;;;;;;2.14;57.01;101897.28;5072923;28;20037;-57
2023/01/24 07:21:56;;;;;;;18.55;7.28;;;;;;;2.14;57.23;101891.13;5072852;28;20450;-52
2023/01/24 07:24:29;;;;;;;18.50;8.20;;;;;;;2.21;56.90;101902.50;5058887;28;20031;-55
2023/01/24 07:26:55;;;;;;;19.15;7.43;;;;;;;2.22;56.74;101899.84;5053042;28;20041;-52
2023/01/24 07:29:21;;;;;;;24.67;8.93;;;;;;;2.21;57.16;101905.16;5053080;28;20094;-53
2023/01/24 07:31:50;;;;;;;16.00;7.80;;;;;;;2.15;56.64;101896.38;5053593;28;20025;-54
2023/01/24 07:34:17;;;;;;;16.88;7.95;;;;;;;2.13;57.19;101900.81;5068064;28;20379;-63
2023/01/24 07:36:44;;;;;;;20.65;8.60;;;;;;;2.04;57.38;101900.03;5072559;28;20106;-60
2023/01/24 07:39:10;;;;;;;20.95;8.20;;;;;;;1.94;57.32;101889.59;5070634;28;20028;-51
2023/01/24 07:41:36;;;;;;;25.88;8.68;;;;;;;1.87;57.91;101903.78;5071916;28;20443;-60
2023/01/24 07:44:05;;;;;;;14.35;7.97;;;;;;;1.76;57.74;101901.25;5072249;28;20398;-51
2023/01/24 07:46:35;;;;;;;15.75;7.72;;;;;;;1.70;58.47;101901.31;5072157;28;20028;-55
2023/01/24 07:49:02;;;;;;;15.80;7.57;;;;;;;1.61;58.30;101896.09;5071730;28;20059;-60
2023/01/24 07:51:27;;;;;;;15.75;8.25;;;;;;;1.49;58.68;101898.00;5063898;28;20328;-56
2023/01/24 07:53:53;;;;;;;13.73;7.28;;;;;;;1.49;58.51;101900.63;5063104;28;20059;-55
2023/01/24 07:56:19;;;;;;;15.70;7.72;;;;;;;1.48;58.74;101901.53;5061483;28;20325;-55
2023/01/24 07:58:45;;;;;;;14.23;7.75;;;;;;;1.50;58.36;101901.50;5061300;28;20305;-53
2023/01/24 08:01:16;;;;;;;18.33;7.75;;;;;;;1.51;58.74;101901.50;5060294;28;20060;-58
2023/01/24 08:03:42;;;;;;;14.73;7.65;;;;;;;1.47;58.52;101905.06;5072037;28;20412;-53
2023/01/24 08:06:07;;;;;;;14.13;7.45;;;;;;;1.47;58.16;101901.53;5072033;28;20074;-54
2023/01/24 08:08:33;;;;;;;16.92;8.40;;;;;;;1.44;58.65;101889.22;5071881;28;20788;-55
2023/01/24 08:10:58;;;;;;;14.98;8.02;;;;;;;1.50;58.18;101897.09;5071608;28;20037;-54
2023/01/24 08:13:23;;;;;;;16.23;7.18;;;;;;;1.52;58.41;101892.69;5072533;28;20029;-51
2023/01/24 08:15:49;;;;;;;14.65;7.28;;;;;;;1.51;58.69;101884.75;5074563;28;20157;-56
2023/01/24 08:18:14;;;;;;;15.55;8.43;;;;;;;1.55;58.58;101892.66;5075461;28;20025;-58
2023/01/24 08:20:40;;;;;;;17.10;7.35;;;;;;;1.46;58.20;101883.94;5064810;28;20033;-52
2023/01/24 08:23:05;;;;;;;16.20;7.57;;;;;;;1.47;58.24;101889.22;5070911;28;20024;-56
2023/01/24 08:25:31;;;;;;;17.40;8.50;;;;;;;1.39;58.50;101875.19;5074738;28;20028;-54
2023/01/24 08:27:57;;;;;;;12.88;7.65;;;;;;;1.39;58.48;101885.75;5075575;28;20029;-57
2023/01/24 08:30:23;;;;;;;16.83;7.72;;;;;;;1.34;58.69;101875.25;5068359;28;20513;-57
2023/01/24 08:32:48;;;;;;;12.07;7.63;;;;;;;1.36;58.53;101880.50;5074867;28;20382;-55
2023/01/24 08:35:14;;;;;;;13.80;7.63;;;;;;;1.35;58.59;101876.13;5073470;28;20037;-61
2023/01/24 08:37:39;;;;;;;15.98;7.57;;;;;;;1.32;58.39;101868.22;5066167;28;20040;-56
2023/01/24 08:40:06;;;;;;;14.80;7.55;;;;;;;1.12;58.54;101829.69;5065384;28;20358;-51
2023/01/24 08:42:31;;;;;;;15.55;7.85;;;;;;;1.22;58.72;101862.16;5066167;28;20031;-56
2023/01/24 08:44:57;;;;;;;13.73;7.32;;;;;;;1.18;58.83;101874.50;5060823;28;20103;-55
2023/01/24 08:47:22;;;;;;;15.60;8.05;;;;;;;1.16;58.80;101868.34;5063883;28;20451;-57
2023/01/24 08:49:47;;;;;;;16.48;7.65;;;;;;;1.20;59.21;101859.50;5075523;28;20039;-56
2023/01/24 08:52:13;;;;;;;13.65;7.80;;;;;;;1.21;58.54;101850.75;5076158;28;20025;-54
2023/01/24 08:54:39;;;;;;;15.30;7.82;;;;;;;1.12;58.74;101816.50;5075310;28;20028;-57
2023/01/24 08:57:07;;;;;;;22.40;10.38;;;;;;;1.43;58.41;101856.69;5060523;28;20048;-55
2023/01/24 08:59:33;;;;;;;13.98;7.70;;;;;;;1.55;58.47;101849.50;5055363;28;20024;-52
2023/01/24 09:01:58;;;;;;;14.02;7.75;;;;;;;1.64;57.66;101837.97;5054948;28;20017;-56
2023/01/24 09:04:26;;;;;;;15.10;8.10;;;;;;;1.86;56.91;101843.91;5066780;28;20032;-55
2023/01/24 09:06:52;;;;;;;13.93;8.52;;;;;;;1.78;56.95;101809.66;5075477;28;20447;-57
2023/01/24 09:09:18;;;;;;;20.95;9.88;;;;;;;2.09;56.69;101835.69;5075269;28;20028;-54
2023/01/24 09:11:43;;;;;;;16.98;8.73;;;;;;;2.20;56.22;101832.06;5074148;28;20044;-53
2023/01/24 09:14:09;;;;;;;22.70;8.35;;;;;;;1.90;56.49;101771.66;5074538;28;20064;-54
2023/01/24 09:16:34;;;;;;;16.80;8.65;;;;;;;2.27;56.17;101826.63;5074895;28;20473;-56
2023/01/24 09:19:00;;;;;;;20.90;8.38;;;;;;;2.26;55.65;101826.69;5058216;28;20043;-56
2023/01/24 09:21:25;;;;;;;77.97;13.32;;;;;;;2.25;55.98;101827.56;5072621;28;20238;-53
2023/01/24 09:23:54;;;;;;;30.52;9.77;;;;;;;2.23;56.20;101826.72;5074605;28;20099;-57
2023/01/24 09:26:19;;;;;;;16.05;7.97;;;;;;;2.18;56.16;101826.78;5074677;28;20031;-55
2023/01/24 09:28:45;;;;;;;14.25;8.80;;;;;;;2.14;56.08;101825.06;5074865;28;20025;-62
2023/01/24 09:31:12;;;;;;;15.73;7.75;;;;;;;2.06;56.24;101822.53;5075049;28;20130;-56
2023/01/24 09:33:38;;;;;;;17.33;8.45;;;;;;;1.99;56.52;101828.78;5072108;28;20341;-55
2023/01/24 09:36:04;;;;;;;16.77;7.63;;;;;;;1.95;56.89;101832.38;5074072;28;20146;-58
2023/01/24 09:38:32;;;;;;;22.10;8.55;;;;;;;1.92;56.51;101824.44;5074176;28;20185;-58
2023/01/24 09:41:03;;;;;;;17.45;8.27;;;;;;;1.90;56.54;101827.13;5072170;28;20109;-57
2023/01/24 09:43:38;;;;;;;14.90;8.00;;;;;;;1.83;56.43;101826.31;5073260;28;20344;-60
2023/01/24 09:46:18;;;;;;;15.68;7.57;;;;;;;1.89;56.52;101828.03;5072764;28;20081;-55
2023/01/24 09:48:47;;;;;;;14.00;7.88;;;;;;;1.61;56.58;101774.66;5074493;28;20086;-55
2023/01/24 09:51:19;;;;;;;15.15;8.23;;;;;;;1.91;56.78;101820.06;5074934;28;20033;-53
2023/01/24 09:53:49;;;;;;;19.42;8.73;;;;;;;1.90;56.64;101818.31;5074850;28;20071;-70
2023/01/24 09:56:36;;;;;;;15.38;8.40;;;;;;;1.99;56.83;101813.78;5074368;28;20477;-70
2023/01/24 09:59:14;;;;;;;16.95;8.13;;;;;;;1.96;56.33;101807.69;5073567;28;20115;-55
2023/01/24 10:01:40;;;;;;;13.77;8.45;;;;;;;1.93;56.47;101807.72;5075078;28;20314;-57
2023/01/24 10:04:19;;;;;;;14.13;7.30;;;;;;;2.03;55.91;101803.19;5074101;28;20024;-58
2023/01/24 10:06:56;;;;;;;14.95;7.78;;;;;;;2.02;56.52;101797.03;5075191;28;20032;-56
2023/01/24 10:09:47;;;;;;;16.90;8.48;;;;;;;2.05;56.09;101796.09;5074356;28;20075;-56
2023/01/24 10:12:31;;;;;;;13.23;7.90;;;;;;;2.13;55.91;101789.81;5065536;28;20488;-67
2023/01/24 10:15:02;;;;;;;15.00;7.65;;;;;;;2.21;55.59;101795.00;5073692;28;20455;-57
2023/01/24 10:18:06;;;;;;;12.80;7.55;;;;;;;2.36;55.62;101793.91;5073915;28;20043;-57
2023/01/24 10:20:32;;;;;;;16.00;7.75;;;;;;;2.32;55.16;101784.28;5072449;28;20032;-55
2023/01/24 10:23:17;;;;;;;13.68;7.60;;;;;;;2.38;55.89;101784.19;5073449;28;20344;-57
2023/01/24 10:25:50;;;;;;;13.45;7.95;;;;;;;2.39;55.38;101782.44;5074053;28;20101;-57
2023/01/24 10:28:24;;;;;;;19.05;9.75;;;;;;;2.39;55.61;101778.00;5073969;28;20028;-61
2023/01/24 10:30:52;;;;;;;20.73;10.32;;;;;;;2.39;55.65;101769.22;5073796;28;20032;-56
2023/01/24 10:33:19;;;;;;;12.45;7.55;;;;;;;2.41;55.29;101760.38;5065610;28;20040;-54
2023/01/24 10:36:11;;;;;;;12.98;7.47;;;;;;;2.51;55.42;101755.78;5053397;28;20372;-69
2023/01/24 10:38:37;;;;;;;15.32;8.10;;;;;;;2.43;55.07;101753.28;5053184;28;20324;-56
2023/01/24 10:41:23;;;;;;;15.10;7.93;;;;;;;2.57;55.28;101749.53;5053451;28;20063;-57
2023/01/24 10:43:54;;;;;;;13.52;7.35;;;;;;;2.49;54.66;101736.44;5052895;28;20033;-60
2023/01/24 10:46:47;;;;;;;16.17;8.32;;;;;;;2.38;55.00;101714.59;5066067;28;20115;-55
2023/01/24 10:49:28;;;;;;;15.20;8.77;;;;;;;2.64;54.70;101743.25;5063513;28;20071;-57
2023/01/24 10:52:29;;;;;;;11.73;7.65;;;;;;;2.68;54.97;101739.69;5063514;28;20030;-55
2023/01/24 10:54:57;;;;;;;12.48;6.95;;;;;;;2.59;55.11;101739.81;4990903;28;20358;-59
2023/01/24 10:57:40;;;;;;;15.23;7.90;;;;;;;2.57;55.05;101731.03;5053023;28;20379;-61
2023/01/24 11:00:25;;;;;;;15.25;7.95;;;;;;;2.61;54.84;101730.06;5072552;28;20407;-57
2023/01/24 11:02:52;;;;;;;18.23;7.70;;;;;;;2.53;54.50;101719.66;5071714;28;20485;-54
2023/01/24 11:05:20;;;;;;;13.15;7.50;;;;;;;2.54;54.82;101721.41;5072505;28;20340;-56
2023/01/24 11:07:48;;;;;;;13.93;8.27;;;;;;;2.63;54.46;101712.41;5072458;28;20025;-71
2023/01/24 11:10:15;;;;;;;12.98;8.05;;;;;;;2.59;54.51;101705.44;5057514;28;20040;-59
2023/01/24 11:12:56;;;;;;;14.60;7.40;;;;;;;2.60;54.63;101703.69;5069671;28;20075;-54
2023/01/24 11:15:35;;;;;;;22.50;8.70;;;;;;;2.53;54.75;101687.91;5071950;28;20428;-57
2023/01/24 11:18:17;;;;;;;18.73;8.02;;;;;;;2.54;54.81;101704.63;5070840;28;20481;-56
2023/01/24 11:20:44;;;;;;;19.40;8.23;;;;;;;2.50;54.30;101697.66;5068047;28;20048;-58
2023/01/24 11:23:16;;;;;;;12.00;7.28;;;;;;;2.50;54.86;101702.94;5071366;28;20036;-52
2023/01/24 11:25:56;;;;;;;39.15;9.90;;;;;;;2.57;54.71;101699.28;5072456;28;20033;-53
2023/01/24 11:28:24;;;;;;;18.73;8.82;;;;;;;2.54;54.83;101692.31;5072609;28;20029;-56
2023/01/24 11:30:50;;;;;;;15.55;7.78;;;;;;;2.46;55.01;101693.31;5058873;28;20036;-57
2023/01/24 11:33:34;;;;;;;15.88;8.40;;;;;;;2.60;54.97;101687.81;5053532;28;20173;-68
2023/01/24 11:36:27;;;;;;;17.88;8.50;;;;;;;2.58;54.58;101677.25;5071673;28;20079;-61
2023/01/24 11:38:56;;;;;;;17.58;7.53;;;;;;;2.55;54.45;101675.53;5064433;28;20076;-60
2023/01/24 11:41:31;;;;;;;20.30;8.18;;;;;;;2.56;54.57;101681.69;5072122;28;20056;-62
2023/01/24 11:44:05;;;;;;;24.95;8.73;;;;;;;2.62;54.83;101678.06;5072699;28;20032;-58
2023/01/24 11:46:47;;;;;;;19.65;8.38;;;;;;;2.60;54.77;101677.22;5071219;28;20036;-59
2023/01/24 11:49:34;;;;;;;16.60;7.55;;;;;;;2.39;54.38;101637.88;5071225;28;20371;-57
2023/01/24 11:52:02;;;;;;;12.13;7.63;;;;;;;2.50;55.15;101674.72;5072447;28;20036;-61
2023/01/24 11:54:36;;;;;;;15.18;8.25;;;;;;;2.50;54.72;101676.50;5072851;28;20454;-59
2023/01/24 11:57:23;;;;;;;13.85;8.38;;;;;;;2.56;55.22;101676.41;5072247;28;20028;-58
2023/01/24 12:00:13;;;;;;;17.10;7.63;;;;;;;2.58;54.63;101674.59;5071389;28;20043;-60
2023/01/24 12:03:20;;;;;;;14.25;7.25;;;;;;;2.62;55.01;101665.69;5068129;28;20028;-59